Latest Weather Observations for Horsham

IDV60801

Issued at 7:32 am EST Wednesday 27 September 2017 (issued every 30 minutes, with the page automatically refreshed every 10 minutes)

About weather observations | Map of weather stations | Latest weather observations for VIC | Other Formats
Station Details ID: 079100 Name: HORSHAM AERODROME Lat: -36.67 Lon: 142.17 Height: 133.8 m
Data from the previous 72 hours. | See also: Recent months at Horsham
Date/Time
EST
Temp
°C
App
Temp
°C
Dew
Point
°C
Rel
Hum
%
Delta-T
°C
Wind Press
QNH
hPa
Press
MSL
hPa
Rain since
9am
mm
Dir  Spd
km/h
Gust
km/h
Spd
kts
Gust
kts
27/07:30am 11.3 4.7 4.1 61 3.3 E 28 35 15 19 1005.8 1005.8 0.0
27/07:00am 10.6 3.6 3.9 63 3.0 E 30 35 16 19 1005.5 1005.6 0.0
27/06:30am 10.7 4.0 3.5 61 3.2 E 28 35 15 19 1006.0 1006.0 0.0
27/06:00am 10.0 3.7 3.5 64 2.9 E 26 33 14 18 1006.1 1006.1 0.0
27/05:30am 9.3 3.8 3.9 69 2.4 E 22 28 12 15 1006.6 1006.6 0.0
27/05:00am 9.1 3.2 3.7 69 2.4 E 24 28 13 15 1006.5 1006.5 0.0
27/04:30am 8.5 3.0 3.8 72 2.1 E 22 28 12 15 1006.9 1006.9 0.0
27/04:00am 8.3 3.4 3.9 74 1.9 E 19 24 10 13 1007.6 1007.6 0.0
27/03:30am 8.3 2.3 3.6 72 2.0 ENE 24 30 13 16 1007.4 1007.4 0.0
27/03:00am 8.4 2.1 3.8 73 2.0 ENE 26 30 14 16 1007.9 1007.9 0.0
27/02:30am 8.4 3.2 3.7 72 2.0 ENE 20 26 11 14 1008.6 1008.7 0.0
27/02:00am 8.4 2.1 3.5 71 2.1 ENE 26 33 14 18 1008.7 1008.8 0.0
27/01:30am 8.7 2.7 3.3 69 2.3 ENE 24 32 13 17 1009.4 1009.5 0.0
27/01:00am 9.6 2.8 3.1 64 2.8 ENE 28 35 15 19 1009.8 1009.9 0.0
27/12:30am 10.0 3.6 3.1 62 3.0 ENE 26 33 14 18 1010.5 1010.6 0.0
27/12:00am 10.8 4.0 3.1 59 3.4 ENE 28 35 15 19 1010.6 1010.7 0.0
 
Date/Time
EST
Temp
°C
App
Temp
°C
Dew
Point
°C
Rel
Hum
%
Delta-T
°C
Wind Press
QNH
hPa
Press
MSL
hPa
Rain since
9am
mm
Dir  Spd
km/h
Gust
km/h
Spd
kts
Gust
kts
26/11:30pm 10.6 4.2 3.4 61 3.2 ENE 26 35 14 19 1011.1 1011.2 0.0
26/11:00pm 10.1 5.0 4.0 66 2.7 E 20 26 11 14 1011.6 1011.7 0.0
26/10:30pm 8.9 4.5 4.5 74 2.0 E 17 20 9 11 1012.4 1012.5 0.0
26/10:00pm 7.5 3.4 4.5 81 1.3 E 15 17 8 9 1012.8 1012.9 0.0
26/09:30pm 8.8 4.0 4.4 74 2.0 ENE 19 20 10 11 1013.0 1013.1 0.0
26/09:00pm 9.6 5.1 4.0 68 2.5 ENE 17 19 9 10 1012.9 1013.0 0.0
26/08:30pm 8.5 3.5 4.5 76 1.8 E 20 24 11 13 1012.3 1012.4 0.0
26/08:00pm 8.0 3.1 4.9 81 1.4 E 20 22 11 12 1013.0 1013.1 0.0
26/07:30pm 7.7 3.3 4.5 80 1.4 E 17 20 9 11 1013.2 1013.3 0.0
26/07:00pm 7.7 3.3 5.0 83 1.2 E 17 19 9 10 1013.3 1013.4 0.0
26/06:30pm 10.0 5.9 6.2 77 1.8 ESE 17 19 9 10 1013.6 1013.6 0.0
26/06:00pm 13.1 10.0 7.1 67 2.9 ESE 13 17 7 9 1013.9 1013.9 0.0
26/05:30pm 13.7 10.1 6.8 63 3.4 ESE 15 17 8 9 1013.9 1013.9 0.0
26/05:00pm 15.4 12.9 6.7 56 4.3 ESE 9 11 5 6 1014.1 1014.1 0.0
26/04:30pm 15.3 12.3 5.8 53 4.6 E 11 13 6 7 1014.0 1014.0 0.0
26/04:00pm 15.7 12.8 4.4 47 5.3 ENE 9 13 5 7 1014.2 1014.2 0.0
26/03:30pm 16.8 13.7 3.8 42 6.1 E 9 17 5 9 1014.4 1014.4 0.0
26/03:12pm 16.5 13.1 4.2 44 5.8 NE 11 17 6 9 1014.4 1014.4 0.0
26/03:00pm 16.2 13.5 3.6 43 5.8 ENE 7 13 4 7 1014.7 1014.7 0.0
26/02:53pm 16.1 13.3 1.8 38 6.4 NE 6 9 3 5 1014.9 1015.0 0.0
26/02:30pm 15.6 11.6 0.6 36 6.5 NE 11 17 6 9 1015.0 1015.1 0.0
26/02:00pm 16.6 13.3 4.6 45 5.7 NE 11 20 6 11 1015.7 1015.8 0.0
26/01:30pm 16.0 13.3 3.8 44 5.7 NNE 7 15 4 8 1015.9 1016.0 0.0
26/01:28pm 15.6 12.4 3.1 43 5.7 N 9 17 5 9 1015.9 1016.0 0.0
26/01:09pm 15.6 12.7 4.6 48 5.2 NNE 9 19 5 10 1016.3 1016.4 0.0
26/01:00pm 15.6 12.6 4.3 47 5.3 NNE 9 19 5 10 1016.4 1016.5 0.0
26/12:30pm 15.0 11.4 5.2 52 4.7 NNE 13 20 7 11 1016.6 1016.7 0.0
26/12:00pm 14.0 9.9 4.3 52 4.5 NE 15 20 8 11 1017.0 1017.1 0.0
26/11:30am 13.3 9.2 4.2 54 4.2 NE 15 22 8 12 1017.7 1017.8 0.0
26/11:00am 13.0 9.7 4.4 56 3.9 ENE 11 28 6 15 1018.2 1018.3 0.0
26/10:30am 12.3 8.6 4.5 59 3.6 NE 13 20 7 11 1018.4 1018.5 0.0
26/10:00am 11.6 7.8 4.1 60 3.4 ENE 13 20 7 11 1018.8 1018.9 0.0
26/09:30am 10.7 6.9 5.7 71 2.3 ENE 15 20 8 11 1018.7 1018.8 0.0
26/09:00am 9.1 5.3 5.8 80 1.5 ENE 15 19 8 10 1018.6 1018.7 0.0
26/08:30am 7.5 4.7 7.1 97 0.2 ENE 11 13 6 7 1018.4 1018.5 0.0
26/08:19am 6.2 3.2 5.9 98 0.1 E 11 15 6 8 1018.4 1018.5 0.0
26/08:13am 5.8 3.1 5.5 98 0.1 E 9 13 5 7 1018.3 1018.4 0.0
26/08:00am 4.4 1.8 4.1 98 0.1 ESE 7 11 4 6 1018.2 1018.3 0.0
26/07:30am 0.8 -2.8 0.5 98 0.1 ESE 9 11 5 6 1018.0 1018.1 0.0
26/07:00am -0.2 -3.4 -0.5 98 0.1 ENE 6 7 3 4 1017.7 1017.8 0.0
26/06:58am -0.9 -4.2 -1.2 98 0.1 ENE 6 7 3 4 1017.7 1017.8 0.0
26/06:30am -2.4 -6.5 -2.8 97 0.0 ESE 9 11 5 6 1017.6 1017.7 0.0
26/06:02am -2.1 -5.6 -2.5 97 0.0 NE 6 7 3 4 1017.7 1017.8 0.0
26/06:00am -1.9 -5.3 -2.3 97 0.1 NNE 6 7 3 4 1017.8 1017.9 0.0
26/05:47am -1.5 -5.1 -1.9 97 0.1 N 7 11 4 6 1017.7 1017.8 0.0
26/05:30am -1.0 -3.9 -1.4 97 0.1 NNE 4 9 2 5 1017.6 1017.7 0.0
26/05:08am -1.0 -3.6 -1.4 97 0.1 N 2 9 1 5 1017.3 1017.4 0.0
26/05:06am -1.0 -3.6 -1.4 97 0.1 N 2 9 1 5 1017.3 1017.4 0.0
26/05:00am -1.1 -3.7 -1.5 97 0.1 N 2 6 1 3 1017.3 1017.4 0.0
26/04:32am -1.1 -3.3 -1.7 96 0.2 CALM 0 7 0 4 1017.3 1017.4 0.0
26/04:30am -1.0 -3.2 -1.6 96 0.2 CALM 0 0 0 0 1017.3 1017.4 0.0
26/04:20am 0.5 -1.5 0.1 97 0.1 CALM 0 6 0 3 1017.2 1017.3 0.0
26/04:19am 0.4 -2.0 0.0 97 0.1 SW 2 7 1 4 1017.2 1017.3 0.0
26/04:01am 0.0 -2.1 -0.6 96 0.2 CALM 0 0 0 0 1017.1 1017.2 0.0
26/04:00am 0.0 -2.1 -0.6 96 0.2 CALM 0 0 0 0 1017.1 1017.2 0.0
26/03:51am -0.3 -3.6 -0.9 96 0.2 WSW 6 9 3 5 1017.0 1017.1 0.0
26/03:30am 1.3 -2.3 0.7 96 0.2 SSW 9 11 5 6 1017.0 1017.1 0.0
26/03:21am 1.7 -1.8 1.1 96 0.2 SW 9 11 5 6 1016.9 1017.0 0.0
26/03:00am 2.1 -0.8 1.5 96 0.2 WSW 6 7 3 4 1016.8 1016.9 0.0
26/02:30am 2.8 -0.2 2.2 96 0.2 WSW 7 9 4 5 1016.9 1017.0 0.0
26/02:00am 2.4 -0.1 1.7 95 0.3 SW 4 6 2 3 1017.0 1017.1 0.0
26/01:30am 2.1 -0.8 1.2 94 0.3 SW 6 6 3 3 1017.0 1017.1 0.0
26/01:00am 2.7 -0.3 1.7 93 0.4 SW 7 9 4 5 1016.9 1017.0 0.0
26/12:30am 4.2 1.0 3.2 93 0.4 SSW 9 9 5 5 1016.8 1016.9 0.0
26/12:00am 4.3 1.1 3.1 92 0.5 SW 9 9 5 5 1016.8 1016.9 0.0
 
Date/Time
EST
Temp
°C
App
Temp
°C
Dew
Point
°C
Rel
Hum
%
Delta-T
°C
Wind Press
QNH
hPa
Press
MSL
hPa
Rain since
9am
mm
Dir  Spd
km/h
Gust
km/h
Spd
kts
Gust
kts
25/11:30pm 4.7 1.2 3.4 91 0.5 SSW 11 11 6 6 1016.6 1016.7 0.0
25/11:00pm 5.1 2.4 3.6 90 0.6 SSW 7 9 4 5 1016.5 1016.6 0.0
25/10:30pm 5.3 2.6 3.6 89 0.7 SSW 7 9 4 5 1016.4 1016.5 0.0
25/10:00pm 5.4 1.9 3.6 88 0.8 SSW 11 13 6 7 1016.5 1016.6 0.0
25/09:30pm 5.0 1.0 2.7 85 0.9 SW 13 15 7 8 1016.3 1016.4 0.0
25/09:00pm 7.1 3.0 4.6 84 1.1 SW 15 19 8 10 1015.9 1016.0 0.0
25/08:30pm 7.3 3.2 4.6 83 1.2 SW 15 19 8 10 1015.5 1015.6 0.0
25/08:00pm 6.9 2.4 4.0 82 1.3 SSW 17 19 9 10 1015.1 1015.2 0.0
25/07:30pm 9.2 4.8 4.8 74 2.0 WSW 17 20 9 11 1014.6 1014.6 0.0
25/07:00pm 10.3 6.3 5.1 70 2.4 WSW 15 19 8 10 1014.1 1014.1 0.0
25/06:30pm 11.3 7.1 5.6 68 2.7 SW 17 20 9 11 1013.8 1013.8 0.0
25/06:00pm 13.3 8.5 5.7 60 3.6 SW 20 26 11 14 1013.3 1013.4 0.0
25/05:30pm 14.6 9.9 5.9 56 4.2 SW 20 28 11 15 1012.8 1012.9 0.0
25/05:00pm 14.9 9.2 4.9 51 4.7 SW 24 33 13 18 1012.6 1012.7 0.0
25/04:30pm 16.1 10.5 5.4 49 5.1 SW 24 32 13 17 1012.3 1012.4 0.0
25/04:00pm 16.2 9.3 4.6 46 5.5 WSW 30 39 16 21 1012.2 1012.3 0.0
25/03:30pm 16.3 10.0 5.6 49 5.2 WSW 28 35 15 19 1012.0 1012.1 0.0
25/03:00pm 16.3 10.4 5.6 49 5.2 WSW 26 37 14 20 1012.0 1012.1 0.0
25/02:30pm 15.3 9.5 6.1 54 4.5 WSW 26 33 14 18 1011.9 1012.0 0.0
25/02:00pm 15.9 10.7 7.1 56 4.4 WSW 24 33 13 18 1012.0 1012.1 0.0
25/01:30pm 14.5 8.6 5.8 56 4.2 SW 26 33 14 18 1012.2 1012.3 0.0
25/01:00pm 15.1 9.5 5.3 52 4.7 WSW 24 33 13 18 1012.1 1012.2 0.0
25/12:30pm 14.8 9.0 6.4 57 4.1 WSW 26 35 14 19 1012.0 1012.1 0.0
25/12:00pm 14.7 8.4 5.8 55 4.3 W 28 41 15 22 1011.9 1012.0 0.0
25/11:30am 14.0 7.5 6.4 60 3.7 WSW 30 41 16 22 1011.9 1012.0 0.0
25/11:00am 13.8 7.7 6.4 61 3.6 WSW 28 37 15 20 1011.7 1011.8 0.0
25/10:30am 13.7 7.7 7.2 65 3.2 WSW 28 39 15 21 1011.6 1011.7 0.0
25/10:00am 12.2 5.7 6.5 68 2.7 WSW 30 39 16 21 1011.5 1011.6 0.0
25/09:30am 12.3 6.8 7.6 73 2.3 WSW 26 39 14 21 1011.3 1011.4 0.0
25/09:09am 11.9 6.5 8.2 78 1.8 WSW 26 35 14 19 1011.0 1011.1 0.0
25/09:00am 11.9 6.6 8.4 79 1.7 WSW 26 33 14 18 1010.9 1011.0 1.0
25/08:58am 11.8 6.9 8.5 80 1.6 WSW 24 33 13 18 1010.9 1011.0 1.0
25/08:56am 11.7 6.8 8.4 80 1.6 WSW 24 33 13 18 1010.8 1010.9 1.0
25/08:30am 11.0 6.9 8.8 86 1.1 WSW 20 28 11 15 1010.5 1010.6 1.0
25/08:00am 9.8 5.0 8.7 93 0.5 W 24 30 13 16 1010.0 1010.1 1.0
25/07:30am 9.3 5.2 8.7 96 0.3 W 20 28 11 15 1009.6 1009.7 1.0
25/07:00am 9.0 5.0 8.4 96 0.3 W 19 22 10 12 1009.1 1009.2 1.0
25/06:30am 8.7 5.0 8.1 96 0.3 W 17 22 9 12 1008.7 1008.8 1.0
25/06:00am 8.8 5.2 8.2 96 0.3 W 17 22 9 12 1008.2 1008.2 1.0
25/05:57am 8.8 4.8 8.2 96 0.3 W 19 22 10 12 1008.2 1008.2 1.0
25/05:30am 8.6 5.2 7.8 95 0.4 W 15 19 8 10 1007.8 1007.8 1.0
25/05:00am 9.1 5.5 8.2 94 0.4 W 17 22 9 12 1007.6 1007.6 1.0
25/04:30am 9.5 5.9 8.4 93 0.5 W 17 22 9 12 1007.4 1007.4 1.0
25/04:00am 10.1 6.3 9.0 93 0.5 W 19 24 10 13 1007.0 1007.0 1.0
25/03:30am 10.2 5.8 9.1 93 0.5 W 22 32 12 17 1006.7 1006.7 1.0
25/03:00am 10.0 7.0 9.1 94 0.4 W 15 20 8 11 1006.6 1006.6 1.0
25/02:30am 10.1 6.3 9.2 94 0.4 W 19 24 10 13 1006.6 1006.6 1.0
25/02:00am 10.2 6.8 9.1 93 0.6 WNW 17 20 9 11 1006.9 1006.9 1.0
25/01:30am 10.5 7.1 9.3 92 0.6 WNW 17 19 9 10 1007.0 1007.0 1.0
25/01:00am 10.7 6.7 9.1 90 0.8 W 20 30 11 16 1006.9 1006.9 1.0
25/12:30am 10.8 6.5 9.4 91 0.7 W 22 32 12 17 1006.7 1006.7 1.0
25/12:00am 10.4 6.5 9.3 93 0.6 WNW 20 24 11 13 1006.6 1006.6 1.0
 
Date/Time
EST
Temp
°C
App
Temp
°C
Dew
Point
°C
Rel
Hum
%
Delta-T
°C
Wind Press
QNH
hPa
Press
MSL
hPa
Rain since
9am
mm
Dir  Spd
km/h
Gust
km/h
Spd
kts
Gust
kts
24/11:30pm 10.0 6.2 8.9 93 0.5 WNW 19 28 10 15 1006.7 1006.7 1.0
24/11:00pm 10.8 7.2 9.7 93 0.6 WNW 19 24 10 13 1006.5 1006.5 1.0
24/10:30pm 10.8 6.6 9.6 92 0.6 WNW 22 33 12 18 1006.4 1006.4 1.0
24/10:00pm 10.8 6.9 9.6 92 0.6 WNW 20 26 11 14 1006.1 1006.1 1.0
24/09:30pm 11.0 7.2 9.8 92 0.6 WNW 20 24 11 13 1005.8 1005.8 1.0
24/09:00pm 10.9 6.3 9.8 93 0.6 WNW 24 33 13 18 1005.3 1005.4 1.0
24/08:30pm 11.1 5.7 9.5 90 0.8 WNW 28 37 15 20 1004.9 1005.0 1.0
24/08:00pm 11.3 6.7 9.7 90 0.8 WNW 24 32 13 17 1004.5 1004.6 1.0
24/07:30pm 11.1 6.1 9.7 91 0.7 WNW 26 33 14 18 1004.0 1004.1 1.0
24/07:00pm 11.4 5.2 9.3 87 1.1 WNW 32 41 17 22 1003.4 1003.5 0.8
24/06:30pm 11.6 5.3 9.7 88 1.0 WNW 33 43 18 23 1002.9 1003.0 0.8
24/06:00pm 12.1 5.8 9.7 85 1.2 WNW 33 46 18 25 1002.4 1002.5 0.8
24/05:36pm 11.8 4.8 10.0 89 0.9 WNW 37 57 20 31 1002.2 1002.2 0.8
24/05:34pm 11.9 4.6 10.1 89 0.9 WNW 39 57 21 31 1002.2 1002.2 0.8
24/05:30pm 12.0 3.9 10.1 88 1.0 WNW 43 57 23 31 1002.2 1002.2 0.8
24/05:21pm 11.8 3.0 9.7 87 1.1 WNW 46 67 25 36 1002.1 1002.1 0.6
24/05:09pm 14.1 7.3 6.9 62 3.5 WNW 32 59 17 32 1001.1 1001.1 0.0
24/05:00pm 13.8 7.7 8.2 69 2.8 W 30 43 16 23 1001.2 1001.2 0.0
24/04:30pm 15.6 6.5 6.1 53 4.6 WNW 43 61 23 33 1000.5 1000.5 0.0
24/04:09pm 15.9 8.8 6.3 53 4.7 WNW 33 52 18 28 1000.6 1000.6 0.0
24/04:00pm 14.8 8.0 7.6 62 3.6 W 33 44 18 24 1000.7 1000.7 0.0
24/03:54pm 14.4 6.6 8.1 66 3.2 W 39 57 21 31 1000.8 1000.8 0.0
24/03:30pm 15.7 5.1 5.3 50 5.0 WNW 50 67 27 36 1000.4 1000.4 0.0
24/03:05pm 16.5 6.7 5.2 47 5.4 WNW 46 65 25 35 1000.3 1000.3 0.0
24/03:00pm 16.4 6.7 6.0 50 5.1 WNW 46 61 25 33 1000.4 1000.4 0.0
24/02:30pm 16.1 7.0 6.0 51 4.9 WNW 43 63 23 34 1000.3 1000.3 0.0
24/02:01pm 16.4 7.3 6.8 53 4.8 WNW 44 63 24 34 1000.4 1000.4 0.0
24/02:00pm 16.6 7.1 6.7 52 4.9 WNW 46 63 25 34 1000.4 1000.4 0.0
24/01:30pm 17.0 7.9 6.8 51 5.1 WNW 44 63 24 34 1000.5 1000.5 0.0
24/01:05pm 15.6 6.4 6.3 54 4.5 WNW 44 63 24 34 1000.6 1000.6 0.0
24/01:00pm 15.5 5.9 6.2 54 4.6 WNW 46 63 25 34 1000.8 1000.8 0.0
24/12:34pm 16.3 6.6 7.3 55 4.5 WNW 48 69 26 37 1000.7 1000.7 0.0
24/12:30pm 16.2 7.7 9.2 63 3.6 WNW 44 61 24 33 1000.8 1000.8 0.0
24/12:06pm 15.3 6.6 8.5 64 3.5 WNW 44 63 24 34 1000.8 1000.8 0.0
24/12:00pm 15.3 5.8 8.5 64 3.5 WNW 48 63 26 34 1000.9 1000.9 0.0
24/11:32am 16.5 8.5 7.4 55 4.6 WNW 39 59 21 32 1000.8 1000.8 0.0
24/11:30am 15.6 7.5 7.1 57 4.2 WNW 39 54 21 29 1000.8 1000.8 0.0
24/11:00am 15.5 6.3 7.8 60 3.9 WNW 46 69 25 37 1001.2 1001.2 0.0
24/10:43am 14.4 5.5 7.7 64 3.3 WNW 44 67 24 36 1000.9 1000.9 0.0
24/10:30am 14.4 5.4 7.2 62 3.6 WNW 44 57 24 31 1001.1 1001.1 0.0
24/10:20am 14.7 6.7 7.5 62 3.6 WNW 39 57 21 31 1001.1 1001.1 0.0
24/10:00am 15.0 7.3 8.5 65 3.3 WNW 39 50 21 27 1001.2 1001.2 0.0
24/09:30am 13.1 5.4 8.6 74 2.3 WNW 39 50 21 27 1001.3 1001.3 0.0
24/09:00am 12.1 6.0 9.7 85 1.2 NW 32 39 17 21 1001.4 1001.4 0.8
24/08:30am 11.1 6.1 9.5 90 0.8 NW 26 33 14 18 1001.6 1001.6 0.8
24/08:00am 10.1 5.3 8.9 92 0.6 NNW 24 30 13 16 1001.3 1001.3 0.8

Other Formats:

Comma delimited format used in spreadsheet applications
http://www.bom.gov.au/fwo/IDV60801/IDV60801.95839.axf

JavaScript Object Notation format (JSON) in row-major order
http://www.bom.gov.au/fwo/IDV60801/IDV60801.95839.json